Aeroporto :
LOGIN :

Iscrizione | Disclaimer

   EN    FR    IT 

 










Sommario :    VFR   VFR Marginale   IFR   IFR Intensivo   IFR Molto Intensivo
Visibilità : 
Base nubi : 
>= 8 km
>= 3000ft
5 / 8 km
1000 / 3000 ft
1500m / 5 km
500 / 1000 ft
800 / 1500m
200 / 500 ft
< 800m
< 200 ft
Simboli :   Temporali  Nebbia  Neve Forte  Precipitazioni Forti  Vento > 20 kt
SIGMETs :   Varie  Temporali  Ghiacco  Turbolenza  Onda orograficha  Ceneri Vulcaniche







- Altitudine del aeroporto : 1058 ft
- Codice IATA : SCN


EDDR - Saarbrücken

ULTIMO METAR :
  • 121520Z 24012KT 9999 VCSH FEW022TCU SCT060 02/M02 Q1012 TEMPO 4500 -SHSNRA

METARs OBSOLETI :
  • 121450Z 25010KT 9999 VCSH FEW022 BKN040 03/M03 Q1012 TEMPO 4500 -SHSNRA BKN014TCU
  • 121420Z 26011KT 9999 FEW023 BKN040 03/M02 Q1012 TEMPO 4500 -SHSNRA BKN014TCU
  • 121350Z 26010KT 9999 -SHSN FEW022TCU BKN037 03/M02 Q1011 TEMPO 4500
  • 121320Z 26012KT 9999 FEW022 BKN037 03/M03 Q1011 NOSIG
  • 121250Z 25011KT 9999 FEW022 BKN035 03/M02 Q1011 NOSIG

TAF TAF EDDR
Valido dal 12 a 12 ore il 13 a 12 ore UTC


121100Z 1212/1312 25015G25KT 9999 BKN020
PROB30
TEMPO 1212/1218 4000 -SHSNRA BKN012 BKN020TCU
BECMG 1214/1216 25008KT
PROB30
TEMPO 1300/1312 BKN012
BECMG 1306/1309 20015G25KT
TEMPO 1310/1312 2000 SNRA BKN006
Nessun NOTAM noto per questo aeroporto.



MetMap, La meteo Aeronautica in un colpo d'occhio ! - Copyright ORBIFLY Dicembre 2007 - Disclaimer

ORBIFLY MET'MAP TEAM :

Programmazione e sviluppo : Alexandra Zaïnal
Concezione e sviluppo : Baudouin d'Aumeries
Co-Programmazione e sviluppo : Marc-Olivier Méhu
Supporto tecnico e logistico : Manuel Goepfert
Aiuto per la traduzione : Arnaldo La Scala

Contatto : metmap@orbifly.com




FONTI E CREDITI :

   NOAA